sensor_id;sensor_type;location;lat;lon;timestamp;temperature;humidity
9810;DHT22;4944;52.514;13.192;2023-07-13T00:01:35;21.80;99.20
9810;DHT22;4944;52.514;13.192;2023-07-13T00:04:04;21.80;99.30
9810;DHT22;4944;52.514;13.192;2023-07-13T00:06:31;21.80;99.40
9810;DHT22;4944;52.514;13.192;2023-07-13T00:08:58;21.80;99.40
9810;DHT22;4944;52.514;13.192;2023-07-13T00:11:25;21.70;99.50
9810;DHT22;4944;52.514;13.192;2023-07-13T00:13:53;21.70;99.50
9810;DHT22;4944;52.514;13.192;2023-07-13T00:16:20;21.60;99.50
9810;DHT22;4944;52.514;13.192;2023-07-13T00:18:47;21.60;99.60
9810;DHT22;4944;52.514;13.192;2023-07-13T00:21:14;21.70;99.70
9810;DHT22;4944;52.514;13.192;2023-07-13T00:23:42;21.70;99.70
9810;DHT22;4944;52.514;13.192;2023-07-13T00:26:10;21.60;99.90
9810;DHT22;4944;52.514;13.192;2023-07-13T00:28:38;21.60;99.80
9810;DHT22;4944;52.514;13.192;2023-07-13T00:31:09;21.50;99.90
9810;DHT22;4944;52.514;13.192;2023-07-13T00:33:36;21.50;99.90
9810;DHT22;4944;52.514;13.192;2023-07-13T00:36:04;21.50;99.90
9810;DHT22;4944;52.514;13.192;2023-07-13T00:38:31;21.40;99.90
9810;DHT22;4944;52.514;13.192;2023-07-13T00:40:58;21.40;99.90
9810;DHT22;4944;52.514;13.192;2023-07-13T00:43:27;21.40;99.90
9810;DHT22;4944;52.514;13.192;2023-07-13T00:46:18;21.30;99.90
9810;DHT22;4944;52.514;13.192;2023-07-13T00:48:47;21.30;99.90
9810;DHT22;4944;52.514;13.192;2023-07-13T00:51:17;21.20;99.90
9810;DHT22;4944;52.514;13.192;2023-07-13T00:53:45;21.20;99.90
9810;DHT22;4944;52.514;13.192;2023-07-13T00:56:13;21.20;99.90
9810;DHT22;4944;52.514;13.192;2023-07-13T00:58:40;21.20;99.90
9810;DHT22;4944;52.514;13.192;2023-07-13T01:01:07;21.10;99.90
9810;DHT22;4944;52.514;13.192;2023-07-13T01:03:36;21.10;99.90
9810;DHT22;4944;52.514;13.192;2023-07-13T01:06:03;21.10;99.90
9810;DHT22;4944;52.514;13.192;2023-07-13T01:08:30;21.10;99.90
9810;DHT22;4944;52.514;13.192;2023-07-13T01:10:57;21.00;99.90
9810;DHT22;4944;52.514;13.192;2023-07-13T01:13:25;20.90;99.90
9810;DHT22;4944;52.514;13.192;2023-07-13T01:15:52;20.90;99.90
9810;DHT22;4944;52.514;13.192;2023-07-13T01:18:24;21.00;99.90
9810;DHT22;4944;52.514;13.192;2023-07-13T01:20:53;20.90;99.90
9810;DHT22;4944;52.514;13.192;2023-07-13T01:23:21;21.00;99.90
9810;DHT22;4944;52.514;13.192;2023-07-13T01:25:49;21.00;99.90
9810;DHT22;4944;52.514;13.192;2023-07-13T01:28:16;21.00;99.90
9810;DHT22;4944;52.514;13.192;2023-07-13T01:30:44;20.80;99.90
9810;DHT22;4944;52.514;13.192;2023-07-13T01:33:12;20.90;99.90
9810;DHT22;4944;52.514;13.192;2023-07-13T01:35:39;20.90;99.90
9810;DHT22;4944;52.514;13.192;2023-07-13T01:38:08;20.70;99.90
9810;DHT22;4944;52.514;13.192;2023-07-13T01:40:37;20.60;99.90
9810;DHT22;4944;52.514;13.192;2023-07-13T01:43:05;20.60;99.90
9810;DHT22;4944;52.514;13.192;2023-07-13T01:45:32;20.60;99.90
9810;DHT22;4944;52.514;13.192;2023-07-13T01:47:59;20.50;99.90
9810;DHT22;4944;52.514;13.192;2023-07-13T01:50:26;20.50;99.90
9810;DHT22;4944;52.514;13.192;2023-07-13T01:52:53;20.50;99.90
9810;DHT22;4944;52.514;13.192;2023-07-13T01:55:22;20.60;99.90
9810;DHT22;4944;52.514;13.192;2023-07-13T01:57:49;20.60;99.90
9810;DHT22;4944;52.514;13.192;2023-07-13T02:00:16;20.60;99.90
9810;DHT22;4944;52.514;13.192;2023-07-13T02:02:43;20.60;99.90
9810;DHT22;4944;52.514;13.192;2023-07-13T02:05:10;20.70;99.90
9810;DHT22;4944;52.514;13.192;2023-07-13T02:07:37;20.70;99.90
9810;DHT22;4944;52.514;13.192;2023-07-13T02:10:05;20.80;99.90
9810;DHT22;4944;52.514;13.192;2023-07-13T02:12:34;20.80;99.90
9810;DHT22;4944;52.514;13.192;2023-07-13T02:15:02;20.80;99.90
9810;DHT22;4944;52.514;13.192;2023-07-13T02:17:29;20.80;99.90
9810;DHT22;4944;52.514;13.192;2023-07-13T02:19:56;20.80;99.90
9810;DHT22;4944;52.514;13.192;2023-07-13T02:22:23;20.60;99.90
9810;DHT22;4944;52.514;13.192;2023-07-13T02:24:50;20.40;99.90
9810;DHT22;4944;52.514;13.192;2023-07-13T02:27:17;20.30;99.90
9810;DHT22;4944;52.514;13.192;2023-07-13T02:29:45;20.40;99.90
9810;DHT22;4944;52.514;13.192;2023-07-13T02:32:12;20.30;99.90
9810;DHT22;4944;52.514;13.192;2023-07-13T02:34:40;20.40;99.90
9810;DHT22;4944;52.514;13.192;2023-07-13T02:37:07;20.30;99.90
9810;DHT22;4944;52.514;13.192;2023-07-13T02:39:34;20.30;99.90
9810;DHT22;4944;52.514;13.192;2023-07-13T02:42:01;20.30;99.90
9810;DHT22;4944;52.514;13.192;2023-07-13T02:44:29;20.20;99.90
9810;DHT22;4944;52.514;13.192;2023-07-13T02:46:57;20.20;99.90
9810;DHT22;4944;52.514;13.192;2023-07-13T02:49:24;20.20;99.90
9810;DHT22;4944;52.514;13.192;2023-07-13T02:51:51;20.10;99.90
9810;DHT22;4944;52.514;13.192;2023-07-13T02:54:17;20.10;99.90
9810;DHT22;4944;52.514;13.192;2023-07-13T02:56:44;20.10;99.90
9810;DHT22;4944;52.514;13.192;2023-07-13T02:59:11;20.10;99.90
9810;DHT22;4944;52.514;13.192;2023-07-13T03:01:38;20.00;99.90
9810;DHT22;4944;52.514;13.192;2023-07-13T03:04:07;20.00;99.90
9810;DHT22;4944;52.514;13.192;2023-07-13T03:06:34;19.90;99.90
9810;DHT22;4944;52.514;13.192;2023-07-13T03:09:01;19.90;99.90
9810;DHT22;4944;52.514;13.192;2023-07-13T03:11:29;19.90;99.90
9810;DHT22;4944;52.514;13.192;2023-07-13T03:13:57;19.90;99.90
9810;DHT22;4944;52.514;13.192;2023-07-13T03:16:24;19.90;99.90
9810;DHT22;4944;52.514;13.192;2023-07-13T03:18:51;19.90;99.90
9810;DHT22;4944;52.514;13.192;2023-07-13T03:21:19;19.90;99.90
9810;DHT22;4944;52.514;13.192;2023-07-13T03:23:46;19.80;99.90
9810;DHT22;4944;52.514;13.192;2023-07-13T03:26:16;19.80;99.90
9810;DHT22;4944;52.514;13.192;2023-07-13T03:28:44;19.90;99.90
9810;DHT22;4944;52.514;13.192;2023-07-13T03:31:13;19.80;99.90
9810;DHT22;4944;52.514;13.192;2023-07-13T03:33:40;19.60;99.90
9810;DHT22;4944;52.514;13.192;2023-07-13T03:36:11;19.40;99.90
9810;DHT22;4944;52.514;13.192;2023-07-13T03:38:40;19.40;99.90
9810;DHT22;4944;52.514;13.192;2023-07-13T03:41:07;19.40;99.90
9810;DHT22;4944;52.514;13.192;2023-07-13T03:43:34;19.30;99.90
9810;DHT22;4944;52.514;13.192;2023-07-13T03:46:01;19.40;99.90
9810;DHT22;4944;52.514;13.192;2023-07-13T03:48:27;19.50;99.90
9810;DHT22;4944;52.514;13.192;2023-07-13T03:50:54;19.60;99.90
9810;DHT22;4944;52.514;13.192;2023-07-13T03:53:21;19.60;99.90
9810;DHT22;4944;52.514;13.192;2023-07-13T03:55:50;19.70;99.90
9810;DHT22;4944;52.514;13.192;2023-07-13T03:58:29;19.70;99.90
9810;DHT22;4944;52.514;13.192;2023-07-13T04:00:56;19.60;99.90
9810;DHT22;4944;52.514;13.192;2023-07-13T04:03:24;19.60;99.90
9810;DHT22;4944;52.514;13.192;2023-07-13T04:05:54;19.50;99.90
9810;DHT22;4944;52.514;13.192;2023-07-13T04:08:20;19.50;99.90
9810;DHT22;4944;52.514;13.192;2023-07-13T04:10:47;19.50;99.90
9810;DHT22;4944;52.514;13.192;2023-07-13T04:13:15;19.60;99.90
9810;DHT22;4944;52.514;13.192;2023-07-13T04:15:43;19.60;99.90
9810;DHT22;4944;52.514;13.192;2023-07-13T04:18:10;19.50;99.90
9810;DHT22;4944;52.514;13.192;2023-07-13T04:20:36;19.30;99.90
9810;DHT22;4944;52.514;13.192;2023-07-13T04:23:04;19.30;99.90
9810;DHT22;4944;52.514;13.192;2023-07-13T04:25:30;19.20;99.90
9810;DHT22;4944;52.514;13.192;2023-07-13T04:27:57;19.20;99.90
9810;DHT22;4944;52.514;13.192;2023-07-13T04:30:26;19.00;99.90
9810;DHT22;4944;52.514;13.192;2023-07-13T04:32:53;19.10;99.90
9810;DHT22;4944;52.514;13.192;2023-07-13T04:35:20;19.20;99.90
9810;DHT22;4944;52.514;13.192;2023-07-13T04:37:48;19.30;99.90
9810;DHT22;4944;52.514;13.192;2023-07-13T04:40:16;19.00;99.90
9810;DHT22;4944;52.514;13.192;2023-07-13T04:42:43;19.10;99.90
9810;DHT22;4944;52.514;13.192;2023-07-13T04:45:10;19.10;99.90
9810;DHT22;4944;52.514;13.192;2023-07-13T04:47:38;19.20;99.90
9810;DHT22;4944;52.514;13.192;2023-07-13T04:50:07;19.20;99.90
9810;DHT22;4944;52.514;13.192;2023-07-13T04:52:34;19.20;99.90
9810;DHT22;4944;52.514;13.192;2023-07-13T04:55:01;19.20;99.90
9810;DHT22;4944;52.514;13.192;2023-07-13T04:57:27;19.10;99.90
9810;DHT22;4944;52.514;13.192;2023-07-13T04:59:54;19.00;99.90
9810;DHT22;4944;52.514;13.192;2023-07-13T05:02:22;19.00;99.90
9810;DHT22;4944;52.514;13.192;2023-07-13T05:04:50;19.20;99.90
9810;DHT22;4944;52.514;13.192;2023-07-13T05:07:17;19.30;99.90
9810;DHT22;4944;52.514;13.192;2023-07-13T05:09:44;19.20;99.90
9810;DHT22;4944;52.514;13.192;2023-07-13T05:12:11;19.40;99.90
9810;DHT22;4944;52.514;13.192;2023-07-13T05:14:37;19.50;99.90
9810;DHT22;4944;52.514;13.192;2023-07-13T05:17:04;19.60;99.90
9810;DHT22;4944;52.514;13.192;2023-07-13T05:19:31;19.40;99.90
9810;DHT22;4944;52.514;13.192;2023-07-13T05:22:00;19.40;99.90
9810;DHT22;4944;52.514;13.192;2023-07-13T05:24:28;19.30;99.90
9810;DHT22;4944;52.514;13.192;2023-07-13T05:26:55;19.50;99.90
9810;DHT22;4944;52.514;13.192;2023-07-13T05:29:23;19.50;99.90
9810;DHT22;4944;52.514;13.192;2023-07-13T05:31:50;19.40;99.90
9810;DHT22;4944;52.514;13.192;2023-07-13T05:34:17;19.40;99.90
9810;DHT22;4944;52.514;13.192;2023-07-13T05:36:44;19.50;99.90
9810;DHT22;4944;52.514;13.192;2023-07-13T05:39:12;19.30;99.90
9810;DHT22;4944;52.514;13.192;2023-07-13T05:41:39;19.30;99.90
9810;DHT22;4944;52.514;13.192;2023-07-13T05:44:06;19.50;99.90
9810;DHT22;4944;52.514;13.192;2023-07-13T05:46:33;19.70;99.90
9810;DHT22;4944;52.514;13.192;2023-07-13T05:49:00;19.70;99.90
9810;DHT22;4944;52.514;13.192;2023-07-13T05:51:27;19.80;99.90
9810;DHT22;4944;52.514;13.192;2023-07-13T05:53:54;19.70;99.90
9810;DHT22;4944;52.514;13.192;2023-07-13T05:56:22;19.70;99.90
9810;DHT22;4944;52.514;13.192;2023-07-13T05:58:49;19.70;99.90
9810;DHT22;4944;52.514;13.192;2023-07-13T06:01:16;19.80;99.90
9810;DHT22;4944;52.514;13.192;2023-07-13T06:03:44;19.90;99.90
9810;DHT22;4944;52.514;13.192;2023-07-13T06:06:11;19.80;99.90
9810;DHT22;4944;52.514;13.192;2023-07-13T06:08:38;19.90;99.90
9810;DHT22;4944;52.514;13.192;2023-07-13T06:11:06;19.80;99.90
9810;DHT22;4944;52.514;13.192;2023-07-13T06:13:35;19.90;99.90
9810;DHT22;4944;52.514;13.192;2023-07-13T06:16:02;20.00;99.90
9810;DHT22;4944;52.514;13.192;2023-07-13T06:18:31;20.00;99.90
9810;DHT22;4944;52.514;13.192;2023-07-13T06:20:58;20.00;99.90
9810;DHT22;4944;52.514;13.192;2023-07-13T06:23:25;20.00;99.90
9810;DHT22;4944;52.514;13.192;2023-07-13T06:25:52;19.90;99.90
9810;DHT22;4944;52.514;13.192;2023-07-13T06:28:19;19.80;99.90
9810;DHT22;4944;52.514;13.192;2023-07-13T06:30:47;19.70;99.90
9810;DHT22;4944;52.514;13.192;2023-07-13T06:33:14;19.70;99.90
9810;DHT22;4944;52.514;13.192;2023-07-13T06:35:41;19.90;99.90
9810;DHT22;4944;52.514;13.192;2023-07-13T06:38:08;19.90;99.90
9810;DHT22;4944;52.514;13.192;2023-07-13T06:40:34;19.90;99.90
9810;DHT22;4944;52.514;13.192;2023-07-13T06:43:01;20.00;99.90
9810;DHT22;4944;52.514;13.192;2023-07-13T06:45:28;20.00;99.90
9810;DHT22;4944;52.514;13.192;2023-07-13T06:47:56;20.20;99.90
9810;DHT22;4944;52.514;13.192;2023-07-13T06:50:23;20.20;99.90
9810;DHT22;4944;52.514;13.192;2023-07-13T06:52:50;20.40;99.90
9810;DHT22;4944;52.514;13.192;2023-07-13T06:55:18;20.40;99.90
9810;DHT22;4944;52.514;13.192;2023-07-13T06:57:45;20.50;99.90
9810;DHT22;4944;52.514;13.192;2023-07-13T07:00:13;20.60;99.90
9810;DHT22;4944;52.514;13.192;2023-07-13T07:02:40;20.70;99.90
9810;DHT22;4944;52.514;13.192;2023-07-13T07:05:08;20.80;99.90
9810;DHT22;4944;52.514;13.192;2023-07-13T07:07:35;20.80;99.90
9810;DHT22;4944;52.514;13.192;2023-07-13T07:10:02;20.80;99.90
9810;DHT22;4944;52.514;13.192;2023-07-13T07:12:30;20.90;99.90
9810;DHT22;4944;52.514;13.192;2023-07-13T07:14:57;21.00;99.90
9810;DHT22;4944;52.514;13.192;2023-07-13T07:17:24;20.90;99.90
9810;DHT22;4944;52.514;13.192;2023-07-13T07:19:51;21.10;99.90
9810;DHT22;4944;52.514;13.192;2023-07-13T07:22:20;21.10;99.90
9810;DHT22;4944;52.514;13.192;2023-07-13T07:24:48;21.20;99.90
9810;DHT22;4944;52.514;13.192;2023-07-13T07:27:14;21.20;99.90
9810;DHT22;4944;52.514;13.192;2023-07-13T07:29:41;21.20;99.90
9810;DHT22;4944;52.514;13.192;2023-07-13T07:32:08;21.30;99.90
9810;DHT22;4944;52.514;13.192;2023-07-13T07:34:35;21.40;99.90
9810;DHT22;4944;52.514;13.192;2023-07-13T07:37:02;21.40;99.90
9810;DHT22;4944;52.514;13.192;2023-07-13T07:39:31;21.50;99.90
9810;DHT22;4944;52.514;13.192;2023-07-13T07:41:58;21.50;99.90
9810;DHT22;4944;52.514;13.192;2023-07-13T07:44:25;21.60;99.90
9810;DHT22;4944;52.514;13.192;2023-07-13T07:46:54;21.60;99.90
9810;DHT22;4944;52.514;13.192;2023-07-13T07:49:20;21.60;99.90
9810;DHT22;4944;52.514;13.192;2023-07-13T07:51:47;21.60;99.90
9810;DHT22;4944;52.514;13.192;2023-07-13T07:54:14;21.70;99.90
9810;DHT22;4944;52.514;13.192;2023-07-13T07:56:42;21.80;99.90
9810;DHT22;4944;52.514;13.192;2023-07-13T07:59:09;21.90;99.90
9810;DHT22;4944;52.514;13.192;2023-07-13T08:01:37;21.90;99.90
9810;DHT22;4944;52.514;13.192;2023-07-13T08:04:04;21.90;99.90
9810;DHT22;4944;52.514;13.192;2023-07-13T08:06:31;21.90;99.90
9810;DHT22;4944;52.514;13.192;2023-07-13T08:08:59;21.80;99.30
9810;DHT22;4944;52.514;13.192;2023-07-13T08:11:27;21.90;99.70
9810;DHT22;4944;52.514;13.192;2023-07-13T08:13:55;22.10;99.70
9810;DHT22;4944;52.514;13.192;2023-07-13T08:16:23;22.10;99.60
9810;DHT22;4944;52.514;13.192;2023-07-13T08:18:50;22.20;99.80
9810;DHT22;4944;52.514;13.192;2023-07-13T08:21:17;22.20;99.50
9810;DHT22;4944;52.514;13.192;2023-07-13T08:23:45;22.20;99.70
9810;DHT22;4944;52.514;13.192;2023-07-13T08:26:12;22.30;99.20
9810;DHT22;4944;52.514;13.192;2023-07-13T08:28:40;22.40;99.40
9810;DHT22;4944;52.514;13.192;2023-07-13T08:31:09;22.30;98.90
9810;DHT22;4944;52.514;13.192;2023-07-13T08:33:37;22.10;98.40
9810;DHT22;4944;52.514;13.192;2023-07-13T08:36:06;22.00;98.30
9810;DHT22;4944;52.514;13.192;2023-07-13T08:38:33;22.10;99.10
9810;DHT22;4944;52.514;13.192;2023-07-13T08:41:09;22.10;99.00
9810;DHT22;4944;52.514;13.192;2023-07-13T08:43:37;22.10;98.40
9810;DHT22;4944;52.514;13.192;2023-07-13T08:46:11;22.10;98.40
9810;DHT22;4944;52.514;13.192;2023-07-13T08:48:41;22.10;99.00
9810;DHT22;4944;52.514;13.192;2023-07-13T08:51:17;22.30;99.60
9810;DHT22;4944;52.514;13.192;2023-07-13T08:53:50;22.40;99.90
9810;DHT22;4944;52.514;13.192;2023-07-13T08:56:22;22.50;99.70
9810;DHT22;4944;52.514;13.192;2023-07-13T08:58:54;22.60;99.40
9810;DHT22;4944;52.514;13.192;2023-07-13T09:01:28;22.50;99.40
9810;DHT22;4944;52.514;13.192;2023-07-13T09:04:02;22.50;99.50
9810;DHT22;4944;52.514;13.192;2023-07-13T09:06:39;22.40;99.50
9810;DHT22;4944;52.514;13.192;2023-07-13T09:09:15;22.50;99.80
9810;DHT22;4944;52.514;13.192;2023-07-13T09:11:50;22.50;99.90
9810;DHT22;4944;52.514;13.192;2023-07-13T09:14:34;22.60;99.50
9810;DHT22;4944;52.514;13.192;2023-07-13T09:17:05;22.70;99.50
9810;DHT22;4944;52.514;13.192;2023-07-13T09:19:35;22.80;97.70
9810;DHT22;4944;52.514;13.192;2023-07-13T09:22:04;22.80;98.50
9810;DHT22;4944;52.514;13.192;2023-07-13T09:24:38;22.80;98.30
9810;DHT22;4944;52.514;13.192;2023-07-13T09:27:14;22.80;98.50
9810;DHT22;4944;52.514;13.192;2023-07-13T09:29:47;22.80;98.00
9810;DHT22;4944;52.514;13.192;2023-07-13T09:32:18;23.00;97.70
9810;DHT22;4944;52.514;13.192;2023-07-13T09:34:50;23.20;97.30
9810;DHT22;4944;52.514;13.192;2023-07-13T09:37:19;23.20;97.00
9810;DHT22;4944;52.514;13.192;2023-07-13T09:39:49;23.20;98.10
9810;DHT22;4944;52.514;13.192;2023-07-13T09:42:20;23.20;97.90
9810;DHT22;4944;52.514;13.192;2023-07-13T09:44:53;23.20;97.20
9810;DHT22;4944;52.514;13.192;2023-07-13T09:47:23;23.30;97.40
9810;DHT22;4944;52.514;13.192;2023-07-13T09:49:56;23.40;97.30
9810;DHT22;4944;52.514;13.192;2023-07-13T09:52:24;23.50;97.80
9810;DHT22;4944;52.514;13.192;2023-07-13T09:54:52;23.70;95.80
9810;DHT22;4944;52.514;13.192;2023-07-13T09:57:26;23.80;95.80
9810;DHT22;4944;52.514;13.192;2023-07-13T09:59:55;23.80;96.20
9810;DHT22;4944;52.514;13.192;2023-07-13T10:02:28;23.90;96.30
9810;DHT22;4944;52.514;13.192;2023-07-13T10:04:57;24.10;96.40
9810;DHT22;4944;52.514;13.192;2023-07-13T10:07:24;24.00;96.30
9810;DHT22;4944;52.514;13.192;2023-07-13T10:09:52;23.80;95.00
9810;DHT22;4944;52.514;13.192;2023-07-13T10:12:20;23.70;95.10
9810;DHT22;4944;52.514;13.192;2023-07-13T10:14:52;23.70;95.20
9810;DHT22;4944;52.514;13.192;2023-07-13T10:17:29;23.70;95.20
9810;DHT22;4944;52.514;13.192;2023-07-13T10:19:59;23.60;95.10
9810;DHT22;4944;52.514;13.192;2023-07-13T10:22:36;23.70;95.30
9810;DHT22;4944;52.514;13.192;2023-07-13T10:25:15;23.90;94.90
9810;DHT22;4944;52.514;13.192;2023-07-13T10:27:44;24.10;95.20
9810;DHT22;4944;52.514;13.192;2023-07-13T10:30:15;24.20;94.80
9810;DHT22;4944;52.514;13.192;2023-07-13T10:32:45;24.40;94.80
9810;DHT22;4944;52.514;13.192;2023-07-13T10:35:14;24.40;94.20
9810;DHT22;4944;52.514;13.192;2023-07-13T10:37:45;24.10;94.20
9810;DHT22;4944;52.514;13.192;2023-07-13T10:40:17;24.10;94.10
9810;DHT22;4944;52.514;13.192;2023-07-13T10:42:48;24.20;93.80
9810;DHT22;4944;52.514;13.192;2023-07-13T10:45:18;24.40;94.00
9810;DHT22;4944;52.514;13.192;2023-07-13T10:47:47;24.60;93.60
9810;DHT22;4944;52.514;13.192;2023-07-13T10:50:17;24.60;92.90
9810;DHT22;4944;52.514;13.192;2023-07-13T10:52:47;24.80;93.20
9810;DHT22;4944;52.514;13.192;2023-07-13T10:55:40;25.00;92.30
9810;DHT22;4944;52.514;13.192;2023-07-13T10:58:20;24.80;91.90
9810;DHT22;4944;52.514;13.192;2023-07-13T11:00:49;24.80;92.00
9810;DHT22;4944;52.514;13.192;2023-07-13T11:03:20;24.70;92.00
9810;DHT22;4944;52.514;13.192;2023-07-13T11:05:49;24.80;91.90
9810;DHT22;4944;52.514;13.192;2023-07-13T11:08:23;24.80;91.30
9810;DHT22;4944;52.514;13.192;2023-07-13T11:10:58;25.00;91.20
9810;DHT22;4944;52.514;13.192;2023-07-13T11:13:56;25.20;90.90
9810;DHT22;4944;52.514;13.192;2023-07-13T11:16:43;25.20;88.60
9810;DHT22;4944;52.514;13.192;2023-07-13T11:19:40;25.20;88.50
9810;DHT22;4944;52.514;13.192;2023-07-13T11:22:19;25.30;87.90
9810;DHT22;4944;52.514;13.192;2023-07-13T11:27:42;25.50;88.20
9810;DHT22;4944;52.514;13.192;2023-07-13T11:30:22;25.20;89.20
9810;DHT22;4944;52.514;13.192;2023-07-13T11:32:51;25.30;89.80
9810;DHT22;4944;52.514;13.192;2023-07-13T11:35:35;25.30;90.00
9810;DHT22;4944;52.514;13.192;2023-07-13T11:38:11;25.20;90.20
9810;DHT22;4944;52.514;13.192;2023-07-13T11:40:41;25.20;90.70
9810;DHT22;4944;52.514;13.192;2023-07-13T11:43:13;25.20;90.40
9810;DHT22;4944;52.514;13.192;2023-07-13T11:45:41;25.10;89.50
9810;DHT22;4944;52.514;13.192;2023-07-13T11:48:19;25.00;90.20
9810;DHT22;4944;52.514;13.192;2023-07-13T11:50:53;25.00;90.80
9810;DHT22;4944;52.514;13.192;2023-07-13T11:53:22;25.20;90.90
9810;DHT22;4944;52.514;13.192;2023-07-13T11:55:52;25.40;90.80
9810;DHT22;4944;52.514;13.192;2023-07-13T11:58:23;25.80;90.80
9810;DHT22;4944;52.514;13.192;2023-07-13T12:00:51;26.20;90.80
9810;DHT22;4944;52.514;13.192;2023-07-13T12:03:21;26.40;90.60
9810;DHT22;4944;52.514;13.192;2023-07-13T12:05:59;26.30;90.00
9810;DHT22;4944;52.514;13.192;2023-07-13T12:08:27;26.20;89.60
9810;DHT22;4944;52.514;13.192;2023-07-13T12:11:02;25.90;90.00
9810;DHT22;4944;52.514;13.192;2023-07-13T12:13:35;26.00;89.80
9810;DHT22;4944;52.514;13.192;2023-07-13T12:16:12;26.10;88.40
9810;DHT22;4944;52.514;13.192;2023-07-13T12:18:43;26.00;88.70
9810;DHT22;4944;52.514;13.192;2023-07-13T12:21:17;25.70;88.60
9810;DHT22;4944;52.514;13.192;2023-07-13T12:23:47;25.90;88.60
9810;DHT22;4944;52.514;13.192;2023-07-13T12:26:15;26.20;87.60
9810;DHT22;4944;52.514;13.192;2023-07-13T12:28:47;26.30;84.80
9810;DHT22;4944;52.514;13.192;2023-07-13T12:31:26;26.10;85.60
9810;DHT22;4944;52.514;13.192;2023-07-13T12:33:57;26.00;86.30
9810;DHT22;4944;52.514;13.192;2023-07-13T12:36:26;26.10;85.60
9810;DHT22;4944;52.514;13.192;2023-07-13T12:38:57;26.30;86.70
9810;DHT22;4944;52.514;13.192;2023-07-13T12:41:29;26.30;87.00
9810;DHT22;4944;52.514;13.192;2023-07-13T12:43:56;26.50;86.10
9810;DHT22;4944;52.514;13.192;2023-07-13T12:46:24;26.10;84.90
9810;DHT22;4944;52.514;13.192;2023-07-13T12:48:56;26.20;85.40
9810;DHT22;4944;52.514;13.192;2023-07-13T12:51:27;26.30;84.50
9810;DHT22;4944;52.514;13.192;2023-07-13T12:54:05;26.30;85.80
9810;DHT22;4944;52.514;13.192;2023-07-13T12:56:33;26.60;86.90
9810;DHT22;4944;52.514;13.192;2023-07-13T12:59:02;27.00;85.60
9810;DHT22;4944;52.514;13.192;2023-07-13T13:01:34;26.70;84.90
9810;DHT22;4944;52.514;13.192;2023-07-13T13:04:03;26.90;84.80
9810;DHT22;4944;52.514;13.192;2023-07-13T13:06:33;26.90;83.20
9810;DHT22;4944;52.514;13.192;2023-07-13T13:09:01;26.90;84.40
9810;DHT22;4944;52.514;13.192;2023-07-13T13:11:31;27.10;83.50
9810;DHT22;4944;52.514;13.192;2023-07-13T13:13:58;27.00;83.20
9810;DHT22;4944;52.514;13.192;2023-07-13T13:16:32;26.70;83.90
9810;DHT22;4944;52.514;13.192;2023-07-13T13:19:05;26.60;84.20
9810;DHT22;4944;52.514;13.192;2023-07-13T13:21:39;26.80;84.40
9810;DHT22;4944;52.514;13.192;2023-07-13T13:24:11;26.80;83.10
9810;DHT22;4944;52.514;13.192;2023-07-13T13:26:38;26.50;84.60
9810;DHT22;4944;52.514;13.192;2023-07-13T13:29:13;26.40;82.70
9810;DHT22;4944;52.514;13.192;2023-07-13T13:31:41;26.50;84.10
9810;DHT22;4944;52.514;13.192;2023-07-13T13:34:10;26.70;84.60
9810;DHT22;4944;52.514;13.192;2023-07-13T13:36:38;26.70;85.40
9810;DHT22;4944;52.514;13.192;2023-07-13T13:39:18;27.10;84.70
9810;DHT22;4944;52.514;13.192;2023-07-13T13:41:45;27.50;83.80
9810;DHT22;4944;52.514;13.192;2023-07-13T13:44:14;27.80;84.10
9810;DHT22;4944;52.514;13.192;2023-07-13T13:46:42;28.00;83.40
9810;DHT22;4944;52.514;13.192;2023-07-13T13:49:14;27.30;82.90
9810;DHT22;4944;52.514;13.192;2023-07-13T13:51:44;27.10;83.90
9810;DHT22;4944;52.514;13.192;2023-07-13T13:54:13;27.10;84.30
9810;DHT22;4944;52.514;13.192;2023-07-13T13:56:42;27.20;84.90
9810;DHT22;4944;52.514;13.192;2023-07-13T13:59:09;27.70;84.40
9810;DHT22;4944;52.514;13.192;2023-07-13T14:01:36;27.80;85.00
9810;DHT22;4944;52.514;13.192;2023-07-13T14:04:04;27.60;84.40
9810;DHT22;4944;52.514;13.192;2023-07-13T14:06:33;27.00;84.50
9810;DHT22;4944;52.514;13.192;2023-07-13T14:09:02;27.00;85.30
9810;DHT22;4944;52.514;13.192;2023-07-13T14:11:30;27.00;84.80
9810;DHT22;4944;52.514;13.192;2023-07-13T14:13:59;27.20;85.20
9810;DHT22;4944;52.514;13.192;2023-07-13T14:16:30;27.30;85.70
9810;DHT22;4944;52.514;13.192;2023-07-13T14:18:58;27.90;85.50
9810;DHT22;4944;52.514;13.192;2023-07-13T14:21:27;28.00;83.80
9810;DHT22;4944;52.514;13.192;2023-07-13T14:23:54;27.80;84.50
9810;DHT22;4944;52.514;13.192;2023-07-13T14:26:25;27.70;82.30
9810;DHT22;4944;52.514;13.192;2023-07-13T14:28:53;27.80;83.60
9810;DHT22;4944;52.514;13.192;2023-07-13T14:31:21;27.90;82.90
9810;DHT22;4944;52.514;13.192;2023-07-13T14:33:48;27.90;82.20
9810;DHT22;4944;52.514;13.192;2023-07-13T14:36:25;27.80;82.30
9810;DHT22;4944;52.514;13.192;2023-07-13T14:38:53;27.60;82.30
9810;DHT22;4944;52.514;13.192;2023-07-13T14:41:22;27.70;81.60
9810;DHT22;4944;52.514;13.192;2023-07-13T14:43:48;27.70;82.40
9810;DHT22;4944;52.514;13.192;2023-07-13T14:46:28;28.00;82.70
9810;DHT22;4944;52.514;13.192;2023-07-13T14:49:01;28.00;79.40
9810;DHT22;4944;52.514;13.192;2023-07-13T14:51:28;27.70;79.20
9810;DHT22;4944;52.514;13.192;2023-07-13T14:53:55;27.60;79.10
9810;DHT22;4944;52.514;13.192;2023-07-13T14:56:24;27.50;80.30
9810;DHT22;4944;52.514;13.192;2023-07-13T14:58:51;27.50;78.90
9810;DHT22;4944;52.514;13.192;2023-07-13T15:01:19;27.90;79.30
9810;DHT22;4944;52.514;13.192;2023-07-13T15:03:48;27.60;80.30
9810;DHT22;4944;52.514;13.192;2023-07-13T15:06:16;27.80;80.90
9810;DHT22;4944;52.514;13.192;2023-07-13T15:08:45;28.20;81.70
9810;DHT22;4944;52.514;13.192;2023-07-13T15:11:15;28.10;80.60
9810;DHT22;4944;52.514;13.192;2023-07-13T15:13:44;28.20;81.20
9810;DHT22;4944;52.514;13.192;2023-07-13T15:16:16;27.90;80.90
9810;DHT22;4944;52.514;13.192;2023-07-13T15:18:44;28.20;81.60
9810;DHT22;4944;52.514;13.192;2023-07-13T15:21:14;28.40;80.90
9810;DHT22;4944;52.514;13.192;2023-07-13T15:23:42;28.10;80.60
9810;DHT22;4944;52.514;13.192;2023-07-13T15:26:12;28.10;80.70
9810;DHT22;4944;52.514;13.192;2023-07-13T15:28:41;28.00;82.40
9810;DHT22;4944;52.514;13.192;2023-07-13T15:31:18;28.00;81.80
9810;DHT22;4944;52.514;13.192;2023-07-13T15:33:46;28.30;80.80
9810;DHT22;4944;52.514;13.192;2023-07-13T15:38:43;27.90;81.20
9810;DHT22;4944;52.514;13.192;2023-07-13T15:41:17;28.20;81.00
9810;DHT22;4944;52.514;13.192;2023-07-13T15:43:46;28.40;80.20
9810;DHT22;4944;52.514;13.192;2023-07-13T15:46:15;28.20;80.00
9810;DHT22;4944;52.514;13.192;2023-07-13T15:48:42;28.00;80.60
9810;DHT22;4944;52.514;13.192;2023-07-13T15:51:14;27.70;79.80
9810;DHT22;4944;52.514;13.192;2023-07-13T15:53:42;27.20;81.80
9810;DHT22;4944;52.514;13.192;2023-07-13T15:56:19;27.10;81.40
9810;DHT22;4944;52.514;13.192;2023-07-13T15:58:48;26.90;82.00
9810;DHT22;4944;52.514;13.192;2023-07-13T16:01:16;27.20;82.00
9810;DHT22;4944;52.514;13.192;2023-07-13T16:03:44;27.50;82.70